sensor_id;sensor_type;location;lat;lon;timestamp;pressure;altitude;pressure_sealevel;temperature;humidity
21109;BME280;10712;52.944;9.098;2022-10-16T00:00:45;100846.66;;;21.15;55.11
21109;BME280;10712;52.944;9.098;2022-10-16T00:03:11;100852.06;;;21.15;54.89
21109;BME280;10712;52.944;9.098;2022-10-16T00:05:42;100854.50;;;21.18;54.45
21109;BME280;10712;52.944;9.098;2022-10-16T00:08:11;100866.31;;;21.17;54.62
21109;BME280;10712;52.944;9.098;2022-10-16T00:10:37;100862.91;;;21.15;54.59
21109;BME280;10712;52.944;9.098;2022-10-16T00:13:04;100853.06;;;21.14;54.26
21109;BME280;10712;52.944;9.098;2022-10-16T00:15:34;100861.81;;;21.08;54.15
21109;BME280;10712;52.944;9.098;2022-10-16T00:18:04;100864.81;;;21.05;54.15
21109;BME280;10712;52.944;9.098;2022-10-16T00:20:30;100867.53;;;21.05;54.41
21109;BME280;10712;52.944;9.098;2022-10-16T00:22:57;100871.25;;;21.04;54.19
21109;BME280;10712;52.944;9.098;2022-10-16T00:25:23;100872.25;;;21.03;53.91
21109;BME280;10712;52.944;9.098;2022-10-16T00:27:48;100880.69;;;21.00;54.13
21109;BME280;10712;52.944;9.098;2022-10-16T00:30:14;100887.81;;;21.01;53.92
21109;BME280;10712;52.944;9.098;2022-10-16T00:32:40;100893.53;;;20.98;53.87
21109;BME280;10712;52.944;9.098;2022-10-16T00:35:06;100895.53;;;20.96;53.97
21109;BME280;10712;52.944;9.098;2022-10-16T00:37:32;100888.59;;;20.94;53.86
21109;BME280;10712;52.944;9.098;2022-10-16T00:39:58;100889.25;;;20.96;53.90
21109;BME280;10712;52.944;9.098;2022-10-16T00:42:23;100887.72;;;20.93;53.91
21109;BME280;10712;52.944;9.098;2022-10-16T00:44:54;100890.72;;;20.90;54.01
21109;BME280;10712;52.944;9.098;2022-10-16T00:47:30;100895.47;;;20.88;54.16
21109;BME280;10712;52.944;9.098;2022-10-16T00:52:36;100890.19;;;20.87;54.10
21109;BME280;10712;52.944;9.098;2022-10-16T00:55:06;100899.00;;;20.89;54.21
21109;BME280;10712;52.944;9.098;2022-10-16T00:57:33;100898.72;;;20.92;54.06
21109;BME280;10712;52.944;9.098;2022-10-16T01:00:00;100895.16;;;20.91;54.43
21109;BME280;10712;52.944;9.098;2022-10-16T01:02:26;100899.56;;;20.92;54.36
21109;BME280;10712;52.944;9.098;2022-10-16T01:04:54;100905.84;;;20.93;54.21
21109;BME280;10712;52.944;9.098;2022-10-16T01:07:39;100902.28;;;20.92;54.33
21109;BME280;10712;52.944;9.098;2022-10-16T01:13:07;100907.69;;;20.92;54.27
21109;BME280;10712;52.944;9.098;2022-10-16T01:16:00;100909.53;;;20.92;54.48
21109;BME280;10712;52.944;9.098;2022-10-16T01:19:16;100895.00;;;20.93;54.51
21109;BME280;10712;52.944;9.098;2022-10-16T01:21:44;100899.09;;;20.97;54.47
21109;BME280;10712;52.944;9.098;2022-10-16T01:24:38;100895.16;;;20.91;54.33
21109;BME280;10712;52.944;9.098;2022-10-16T01:29:56;100892.28;;;20.93;54.54
21109;BME280;10712;52.944;9.098;2022-10-16T01:32:47;100894.44;;;20.89;54.43
21109;BME280;10712;52.944;9.098;2022-10-16T01:35:35;100900.16;;;20.86;54.38
21109;BME280;10712;52.944;9.098;2022-10-16T01:38:18;100896.28;;;20.89;54.67
21109;BME280;10712;52.944;9.098;2022-10-16T01:40:51;100897.47;;;20.86;54.50
21109;BME280;10712;52.944;9.098;2022-10-16T01:43:33;100898.75;;;20.82;54.68
21109;BME280;10712;52.944;9.098;2022-10-16T01:46:00;100899.06;;;20.79;54.59
21109;BME280;10712;52.944;9.098;2022-10-16T01:48:28;100893.66;;;20.79;54.47
21109;BME280;10712;52.944;9.098;2022-10-16T01:51:06;100891.25;;;20.76;54.60
21109;BME280;10712;52.944;9.098;2022-10-16T01:53:32;100901.41;;;20.74;54.67
21109;BME280;10712;52.944;9.098;2022-10-16T01:56:02;100894.41;;;20.71;54.63
21109;BME280;10712;52.944;9.098;2022-10-16T01:58:33;100887.44;;;20.69;54.89
21109;BME280;10712;52.944;9.098;2022-10-16T02:01:04;100901.97;;;20.68;54.84
21109;BME280;10712;52.944;9.098;2022-10-16T02:03:33;100901.44;;;20.64;54.88
21109;BME280;10712;52.944;9.098;2022-10-16T02:05:59;100907.69;;;20.65;54.72
21109;BME280;10712;52.944;9.098;2022-10-16T02:08:28;100904.59;;;20.60;54.99
21109;BME280;10712;52.944;9.098;2022-10-16T02:10:57;100906.72;;;20.56;54.75
21109;BME280;10712;52.944;9.098;2022-10-16T02:13:45;100905.19;;;20.54;55.18
21109;BME280;10712;52.944;9.098;2022-10-16T02:16:14;100911.91;;;20.50;55.13
21109;BME280;10712;52.944;9.098;2022-10-16T02:18:42;100905.50;;;20.51;55.00
21109;BME280;10712;52.944;9.098;2022-10-16T02:21:30;100903.06;;;20.48;54.91
21109;BME280;10712;52.944;9.098;2022-10-16T02:24:09;100911.19;;;20.48;54.96
21109;BME280;10712;52.944;9.098;2022-10-16T02:27:10;100905.13;;;20.36;55.09
21109;BME280;10712;52.944;9.098;2022-10-16T02:29:47;100909.53;;;20.37;55.17
21109;BME280;10712;52.944;9.098;2022-10-16T02:32:23;100904.97;;;20.37;54.95
21109;BME280;10712;52.944;9.098;2022-10-16T02:34:51;100899.56;;;20.37;55.04
21109;BME280;10712;52.944;9.098;2022-10-16T02:37:18;100901.56;;;20.35;54.98
21109;BME280;10712;52.944;9.098;2022-10-16T02:39:44;100894.44;;;20.34;55.00
21109;BME280;10712;52.944;9.098;2022-10-16T02:42:13;100897.13;;;20.34;55.43
21109;BME280;10712;52.944;9.098;2022-10-16T02:44:40;100899.84;;;20.34;55.13
21109;BME280;10712;52.944;9.098;2022-10-16T02:47:06;100890.72;;;20.35;55.34
21109;BME280;10712;52.944;9.098;2022-10-16T02:49:32;100896.44;;;20.32;55.40
21109;BME280;10712;52.944;9.098;2022-10-16T02:51:57;100904.97;;;20.37;55.16
21109;BME280;10712;52.944;9.098;2022-10-16T02:54:23;100894.44;;;20.34;55.52
21109;BME280;10712;52.944;9.098;2022-10-16T02:56:49;100890.72;;;20.35;55.34
21109;BME280;10712;52.944;9.098;2022-10-16T02:59:15;100887.03;;;20.36;55.74
21109;BME280;10712;52.944;9.098;2022-10-16T03:01:42;100894.88;;;20.20;56.31
21109;BME280;10712;52.944;9.098;2022-10-16T03:04:08;100894.47;;;20.15;56.74
21109;BME280;10712;52.944;9.098;2022-10-16T03:06:34;100887.94;;;20.18;56.64
21109;BME280;10712;52.944;9.098;2022-10-16T03:09:00;100894.88;;;20.20;56.89
21109;BME280;10712;52.944;9.098;2022-10-16T03:11:25;100893.88;;;20.21;57.07
21109;BME280;10712;52.944;9.098;2022-10-16T03:13:52;100897.00;;;20.26;56.95
21109;BME280;10712;52.944;9.098;2022-10-16T03:16:17;100903.25;;;20.27;57.34
21109;BME280;10712;52.944;9.098;2022-10-16T03:18:43;100900.41;;;20.28;57.17
21109;BME280;10712;52.944;9.098;2022-10-16T03:21:12;100903.97;;;20.29;57.38
21109;BME280;10712;52.944;9.098;2022-10-16T03:23:38;100902.97;;;20.30;57.73
21109;BME280;10712;52.944;9.098;2022-10-16T03:26:04;100901.84;;;20.32;57.49
21109;BME280;10712;52.944;9.098;2022-10-16T03:28:30;100895.56;;;20.32;57.68
21109;BME280;10712;52.944;9.098;2022-10-16T03:30:56;100902.28;;;20.37;57.76
21109;BME280;10712;52.944;9.098;2022-10-16T03:33:21;100907.69;;;20.37;57.75
21109;BME280;10712;52.944;9.098;2022-10-16T03:35:52;100915.81;;;20.37;57.88
21109;BME280;10712;52.944;9.098;2022-10-16T03:38:19;100908.22;;;20.41;57.87
21109;BME280;10712;52.944;9.098;2022-10-16T03:40:44;100910.78;;;20.42;58.05
21109;BME280;10712;52.944;9.098;2022-10-16T03:43:10;100912.50;;;20.43;57.92
21109;BME280;10712;52.944;9.098;2022-10-16T03:45:36;100905.38;;;20.42;58.16
21109;BME280;10712;52.944;9.098;2022-10-16T03:48:02;100904.66;;;20.40;57.94
21109;BME280;10712;52.944;9.098;2022-10-16T03:50:29;100910.38;;;20.37;58.16
21109;BME280;10712;52.944;9.098;2022-10-16T03:52:55;100911.94;;;20.40;57.95
21109;BME280;10712;52.944;9.098;2022-10-16T03:55:21;100920.91;;;20.40;57.89
21109;BME280;10712;52.944;9.098;2022-10-16T03:57:47;100912.63;;;20.42;58.13
21109;BME280;10712;52.944;9.098;2022-10-16T04:00:13;100918.38;;;20.39;58.25
21109;BME280;10712;52.944;9.098;2022-10-16T04:02:39;100916.34;;;20.41;58.27
21109;BME280;10712;52.944;9.098;2022-10-16T04:05:07;100916.50;;;20.39;58.12
21109;BME280;10712;52.944;9.098;2022-10-16T04:07:33;100923.47;;;20.42;58.02
21109;BME280;10712;52.944;9.098;2022-10-16T04:09:58;100925.16;;;20.43;58.16
21109;BME280;10712;52.944;9.098;2022-10-16T04:12:26;100932.28;;;20.44;58.25
21109;BME280;10712;52.944;9.098;2022-10-16T04:14:51;100938.25;;;20.48;58.18
21109;BME280;10712;52.944;9.098;2022-10-16T04:17:17;100943.53;;;20.49;58.38
21109;BME280;10712;52.944;9.098;2022-10-16T04:19:43;100953.50;;;20.49;58.34
21109;BME280;10712;52.944;9.098;2022-10-16T04:22:09;100968.72;;;20.50;58.23
21109;BME280;10712;52.944;9.098;2022-10-16T04:24:35;100973.88;;;20.53;58.21
21109;BME280;10712;52.944;9.098;2022-10-16T04:27:01;100957.31;;;20.56;58.33
21109;BME280;10712;52.944;9.098;2022-10-16T04:29:26;100948.50;;;20.54;58.38
21109;BME280;10712;52.944;9.098;2022-10-16T04:31:52;100944.50;;;20.58;58.26
21109;BME280;10712;52.944;9.098;2022-10-16T04:34:18;100948.34;;;20.55;58.61
21109;BME280;10712;52.944;9.098;2022-10-16T04:36:47;100948.50;;;20.54;58.45
21109;BME280;10712;52.944;9.098;2022-10-16T04:39:13;100953.59;;;20.57;58.26
21109;BME280;10712;52.944;9.098;2022-10-16T04:41:39;100947.34;;;20.56;58.56
21109;BME280;10712;52.944;9.098;2022-10-16T04:44:05;100959.88;;;20.57;58.42
21109;BME280;10712;52.944;9.098;2022-10-16T04:46:30;100956.19;;;20.58;58.55
21109;BME280;10712;52.944;9.098;2022-10-16T04:48:56;100960.03;;;20.56;58.35
21109;BME280;10712;52.944;9.098;2022-10-16T04:51:22;100962.72;;;20.56;58.16
21109;BME280;10712;52.944;9.098;2022-10-16T04:53:48;100958.31;;;20.55;58.41
21109;BME280;10712;52.944;9.098;2022-10-16T04:56:14;100960.34;;;20.53;58.48
21109;BME280;10712;52.944;9.098;2022-10-16T04:58:41;100956.78;;;20.52;58.19
21109;BME280;10712;52.944;9.098;2022-10-16T05:01:06;100965.75;;;20.53;58.47
21109;BME280;10712;52.944;9.098;2022-10-16T05:03:32;100965.75;;;20.53;58.46
21109;BME280;10712;52.944;9.098;2022-10-16T05:05:58;100970.16;;;20.54;58.49
21109;BME280;10712;52.944;9.098;2022-10-16T05:08:23;100971.56;;;20.58;58.38
21109;BME280;10712;52.944;9.098;2022-10-16T05:10:49;100976.41;;;20.54;58.37
21109;BME280;10712;52.944;9.098;2022-10-16T05:13:15;100973.00;;;20.52;58.44
21109;BME280;10712;52.944;9.098;2022-10-16T05:15:41;100964.31;;;20.49;58.41
21109;BME280;10712;52.944;9.098;2022-10-16T05:18:08;100967.03;;;20.49;58.44
21109;BME280;10712;52.944;9.098;2022-10-16T05:20:34;100965.31;;;20.48;58.37
21109;BME280;10712;52.944;9.098;2022-10-16T05:23:00;100978.16;;;20.46;58.32
21109;BME280;10712;52.944;9.098;2022-10-16T05:25:26;100978.16;;;20.46;58.29
21109;BME280;10712;52.944;9.098;2022-10-16T05:27:52;100975.34;;;20.37;58.45
21109;BME280;10712;52.944;9.098;2022-10-16T05:30:18;100981.44;;;20.76;57.14
21109;BME280;10712;52.944;9.098;2022-10-16T05:32:50;100971.47;;;20.77;57.13
21109;BME280;10712;52.944;9.098;2022-10-16T05:35:18;100974.91;;;20.79;57.16
21109;BME280;10712;52.944;9.098;2022-10-16T05:37:45;100982.31;;;20.77;57.27
21109;BME280;10712;52.944;9.098;2022-10-16T05:40:11;100986.44;;;20.81;57.27
21109;BME280;10712;52.944;9.098;2022-10-16T05:42:39;100994.97;;;20.86;57.39
21109;BME280;10712;52.944;9.098;2022-10-16T05:45:06;100982.41;;;20.85;57.27
21109;BME280;10712;52.944;9.098;2022-10-16T05:47:33;100980.81;;;20.92;57.37
21109;BME280;10712;52.944;9.098;2022-10-16T05:49:59;100972.31;;;20.87;57.32
21109;BME280;10712;52.944;9.098;2022-10-16T05:52:27;100986.94;;;20.94;57.51
21109;BME280;10712;52.944;9.098;2022-10-16T05:54:52;100977.66;;;20.97;57.13
21109;BME280;10712;52.944;9.098;2022-10-16T05:57:18;100983.19;;;20.95;57.17
21109;BME280;10712;52.944;9.098;2022-10-16T05:59:44;100987.94;;;20.93;57.68
21109;BME280;10712;52.944;9.098;2022-10-16T06:02:13;100998.31;;;20.98;57.56
21109;BME280;10712;52.944;9.098;2022-10-16T06:04:39;101003.59;;;20.99;57.65
21109;BME280;10712;52.944;9.098;2022-10-16T06:07:05;101007.69;;;21.03;57.29
21109;BME280;10712;52.944;9.098;2022-10-16T06:09:31;101021.84;;;20.97;57.82
21109;BME280;10712;52.944;9.098;2022-10-16T06:11:56;101017.13;;;20.99;57.77
21109;BME280;10712;52.944;9.098;2022-10-16T06:14:22;101025.81;;;21.03;57.83
21109;BME280;10712;52.944;9.098;2022-10-16T06:16:48;101025.66;;;21.04;57.45
21109;BME280;10712;52.944;9.098;2022-10-16T06:19:14;101024.94;;;21.02;57.51
21109;BME280;10712;52.944;9.098;2022-10-16T06:21:42;101019.25;;;21.05;57.40
21109;BME280;10712;52.944;9.098;2022-10-16T06:24:08;101017.25;;;21.07;57.51
21109;BME280;10712;52.944;9.098;2022-10-16T06:26:34;101021.66;;;21.08;57.56
21109;BME280;10712;52.944;9.098;2022-10-16T06:29:00;101020.63;;;21.09;57.45
21109;BME280;10712;52.944;9.098;2022-10-16T06:31:29;101025.75;;;21.12;57.74
21109;BME280;10712;52.944;9.098;2022-10-16T06:33:57;101032.91;;;21.13;57.53
21109;BME280;10712;52.944;9.098;2022-10-16T06:36:24;101021.91;;;21.15;57.54
21109;BME280;10712;52.944;9.098;2022-10-16T06:38:50;101031.75;;;21.16;57.59
21109;BME280;10712;52.944;9.098;2022-10-16T06:41:20;101026.03;;;21.19;57.42
21109;BME280;10712;52.944;9.098;2022-10-16T06:43:48;101036.75;;;21.20;57.67
21109;BME280;10712;52.944;9.098;2022-10-16T06:46:17;101039.13;;;21.23;57.46
21109;BME280;10712;52.944;9.098;2022-10-16T06:48:43;101041.25;;;21.30;57.15
21109;BME280;10712;52.944;9.098;2022-10-16T06:51:19;101040.00;;;21.24;57.55
21109;BME280;10712;52.944;9.098;2022-10-16T06:53:51;101056.50;;;21.31;57.16
21109;BME280;10712;52.944;9.098;2022-10-16T06:56:22;101063.38;;;21.25;57.31
21109;BME280;10712;52.944;9.098;2022-10-16T06:58:49;101054.81;;;21.30;57.40
21109;BME280;10712;52.944;9.098;2022-10-16T07:01:17;101067.59;;;21.37;57.17
21109;BME280;10712;52.944;9.098;2022-10-16T07:03:45;101070.28;;;21.37;57.40
21109;BME280;10712;52.944;9.098;2022-10-16T07:06:15;101079.00;;;21.41;57.31
21109;BME280;10712;52.944;9.098;2022-10-16T07:08:44;101086.41;;;21.39;57.36
21109;BME280;10712;52.944;9.098;2022-10-16T07:11:14;101082.41;;;21.43;57.13
21109;BME280;10712;52.944;9.098;2022-10-16T07:13:43;101098.34;;;21.46;57.14
21109;BME280;10712;52.944;9.098;2022-10-16T07:16:17;101100.34;;;21.44;57.35
21109;BME280;10712;52.944;9.098;2022-10-16T07:18:45;101101.78;;;21.48;57.11
21109;BME280;10712;52.944;9.098;2022-10-16T07:21:19;101107.22;;;21.48;57.31
21109;BME280;10712;52.944;9.098;2022-10-16T07:24:10;101119.19;;;21.45;57.37
21109;BME280;10712;52.944;9.098;2022-10-16T07:26:37;101122.16;;;21.52;57.06
21109;BME280;10712;52.944;9.098;2022-10-16T07:29:19;101128.56;;;21.51;57.32
21109;BME280;10712;52.944;9.098;2022-10-16T07:31:47;101134.09;;;21.59;57.07
21109;BME280;10712;52.944;9.098;2022-10-16T07:34:15;101134.81;;;21.61;57.45
21109;BME280;10712;52.944;9.098;2022-10-16T07:36:41;101142.25;;;21.59;57.43
21109;BME280;10712;52.944;9.098;2022-10-16T07:39:08;101145.81;;;21.59;57.19
21109;BME280;10712;52.944;9.098;2022-10-16T07:41:34;101145.66;;;21.61;57.27
21109;BME280;10712;52.944;9.098;2022-10-16T07:44:02;101147.06;;;21.65;56.96
21109;BME280;10712;52.944;9.098;2022-10-16T07:46:29;101151.47;;;21.66;57.41
21109;BME280;10712;52.944;9.098;2022-10-16T07:48:56;101169.56;;;21.75;57.27
21109;BME280;10712;52.944;9.098;2022-10-16T07:51:24;101160.09;;;21.79;56.99
21109;BME280;10712;52.944;9.098;2022-10-16T07:53:51;101165.53;;;21.79;56.98
21109;BME280;10712;52.944;9.098;2022-10-16T07:56:19;101167.19;;;21.90;56.95
21109;BME280;10712;52.944;9.098;2022-10-16T07:58:45;101160.31;;;21.95;56.95
21109;BME280;10712;52.944;9.098;2022-10-16T08:01:15;101172.28;;;22.03;56.83
21109;BME280;10712;52.944;9.098;2022-10-16T08:03:47;101172.66;;;22.08;56.82
21109;BME280;10712;52.944;9.098;2022-10-16T08:06:14;101173.09;;;22.13;56.86
21109;BME280;10712;52.944;9.098;2022-10-16T08:08:40;101182.16;;;22.21;56.62
21109;BME280;10712;52.944;9.098;2022-10-16T08:11:06;101180.38;;;22.30;56.63
21109;BME280;10712;52.944;9.098;2022-10-16T08:13:32;101178.91;;;22.35;56.50
21109;BME280;10712;52.944;9.098;2022-10-16T08:15:58;101187.41;;;22.40;56.37
21109;BME280;10712;52.944;9.098;2022-10-16T08:18:24;101186.28;;;22.43;56.54
21109;BME280;10712;52.944;9.098;2022-10-16T08:20:58;101183.88;;;22.40;56.16
21109;BME280;10712;52.944;9.098;2022-10-16T08:23:24;101183.63;;;22.51;55.82
21109;BME280;10712;52.944;9.098;2022-10-16T08:25:53;101191.44;;;22.54;55.52
21109;BME280;10712;52.944;9.098;2022-10-16T08:28:19;101195.22;;;22.53;55.44
21109;BME280;10712;52.944;9.098;2022-10-16T08:30:45;101192.50;;;22.53;55.70
21109;BME280;10712;52.944;9.098;2022-10-16T08:33:11;101196.44;;;22.59;55.34
21109;BME280;10712;52.944;9.098;2022-10-16T08:35:37;101191.53;;;22.62;55.15
21109;BME280;10712;52.944;9.098;2022-10-16T08:38:04;101203.25;;;22.63;54.87
21109;BME280;10712;52.944;9.098;2022-10-16T08:40:32;101213.66;;;22.67;54.92
21109;BME280;10712;52.944;9.098;2022-10-16T08:44:15;101214.34;;;22.69;54.75
21109;BME280;10712;52.944;9.098;2022-10-16T08:46:21;101214.78;;;22.74;54.43
21109;BME280;10712;52.944;9.098;2022-10-16T08:48:57;101219.59;;;22.81;54.43
21109;BME280;10712;52.944;9.098;2022-10-16T08:51:33;101211.09;;;22.84;54.02
21109;BME280;10712;52.944;9.098;2022-10-16T08:54:14;101218.25;;;22.85;54.18
21109;BME280;10712;52.944;9.098;2022-10-16T08:56:45;101219.97;;;22.86;54.16
21109;BME280;10712;52.944;9.098;2022-10-16T08:59:13;101225.41;;;22.86;53.96
21109;BME280;10712;52.944;9.098;2022-10-16T09:01:46;101228.50;;;22.91;53.62
21109;BME280;10712;52.944;9.098;2022-10-16T09:06:58;101235.00;;;22.98;53.93
21109;BME280;10712;52.944;9.098;2022-10-16T09:12:43;101249.22;;;23.09;53.76
21109;BME280;10712;52.944;9.098;2022-10-16T09:15:30;101247.06;;;23.21;53.94
21109;BME280;10712;52.944;9.098;2022-10-16T09:20:52;101262.25;;;23.32;53.47
21109;BME280;10712;52.944;9.098;2022-10-16T09:23:32;101253.69;;;23.44;53.32
21109;BME280;10712;52.944;9.098;2022-10-16T09:25:59;101259.69;;;23.48;53.25
21109;BME280;10712;52.944;9.098;2022-10-16T09:28:25;101260.28;;;23.60;52.99
21109;BME280;10712;52.944;9.098;2022-10-16T09:30:51;101267.41;;;23.61;52.52
21109;BME280;10712;52.944;9.098;2022-10-16T09:33:21;101272.75;;;23.70;51.78
21109;BME280;10712;52.944;9.098;2022-10-16T09:35:52;101271.56;;;23.73;51.74
21109;BME280;10712;52.944;9.098;2022-10-16T09:38:31;101276.00;;;23.74;52.01
21109;BME280;10712;52.944;9.098;2022-10-16T09:41:14;101277.91;;;23.81;51.87
21109;BME280;10712;52.944;9.098;2022-10-16T09:44:24;101271.97;;;23.86;51.92
21109;BME280;10712;52.944;9.098;2022-10-16T09:47:11;101279.16;;;23.95;51.63
21109;BME280;10712;52.944;9.098;2022-10-16T09:49:37;101273.06;;;24.01;51.47
21109;BME280;10712;52.944;9.098;2022-10-16T09:52:13;101275.97;;;24.08;51.54
21109;BME280;10712;52.944;9.098;2022-10-16T09:54:54;101284.00;;;24.09;50.94
21109;BME280;10712;52.944;9.098;2022-10-16T09:57:21;101274.84;;;24.18;50.77
21109;BME280;10712;52.944;9.098;2022-10-16T09:59:54;101281.53;;;24.24;50.55
21109;BME280;10712;52.944;9.098;2022-10-16T10:02:33;101281.72;;;24.30;50.30
21109;BME280;10712;52.944;9.098;2022-10-16T10:05:01;101278.53;;;24.43;50.20
21109;BME280;10712;52.944;9.098;2022-10-16T10:07:33;101293.69;;;24.46;49.76
21109;BME280;10712;52.944;9.098;2022-10-16T10:10:05;101288.41;;;24.44;49.78
21109;BME280;10712;52.944;9.098;2022-10-16T10:12:32;101291.81;;;24.46;49.45
21109;BME280;10712;52.944;9.098;2022-10-16T10:15:11;101288.94;;;24.48;49.25
21109;BME280;10712;52.944;9.098;2022-10-16T10:17:52;101295.22;;;24.48;49.39
21109;BME280;10712;52.944;9.098;2022-10-16T10:20:34;101302.56;;;24.48;49.33
21109;BME280;10712;52.944;9.098;2022-10-16T10:23:26;101298.78;;;24.49;48.78
21109;BME280;10712;52.944;9.098;2022-10-16T10:26:20;101315.34;;;24.47;48.77
21109;BME280;10712;52.944;9.098;2022-10-16T10:31:41;101313.13;;;24.51;48.82
21109;BME280;10712;52.944;9.098;2022-10-16T10:36:53;101323.34;;;24.57;49.03
21109;BME280;10712;52.944;9.098;2022-10-16T10:39:28;101324.91;;;24.59;48.60
21109;BME280;10712;52.944;9.098;2022-10-16T10:42:32;101328.47;;;24.60;48.37
21109;BME280;10712;52.944;9.098;2022-10-16T10:45:49;101336.66;;;24.60;48.57
21109;BME280;10712;52.944;9.098;2022-10-16T10:48:54;101334.25;;;24.65;48.88
21109;BME280;10712;52.944;9.098;2022-10-16T10:57:45;101330.59;;;24.90;49.01
21109;BME280;10712;52.944;9.098;2022-10-16T11:08:52;101334.88;;;25.33;48.02
21109;BME280;10712;52.944;9.098;2022-10-16T11:11:33;101325.69;;;25.42;47.77
21109;BME280;10712;52.944;9.098;2022-10-16T11:14:19;101327.19;;;25.53;47.10
21109;BME280;10712;52.944;9.098;2022-10-16T11:19:55;101333.69;;;25.52;46.12
21109;BME280;10712;52.944;9.098;2022-10-16T11:22:38;101342.91;;;25.59;45.74
21109;BME280;10712;52.944;9.098;2022-10-16T11:25:30;101354.00;;;25.66;45.03
21109;BME280;10712;52.944;9.098;2022-10-16T11:28:16;101357.41;;;25.68;44.89
21109;BME280;10712;52.944;9.098;2022-10-16T11:30:58;101337.13;;;25.70;44.97
21109;BME280;10712;52.944;9.098;2022-10-16T11:33:36;101344.59;;;25.76;44.76
21109;BME280;10712;52.944;9.098;2022-10-16T11:39:04;101365.09;;;25.72;44.69
21109;BME280;10712;52.944;9.098;2022-10-16T11:41:48;101365.28;;;25.63;44.20
21109;BME280;10712;52.944;9.098;2022-10-16T11:44:40;101363.06;;;25.58;44.56
21109;BME280;10712;52.944;9.098;2022-10-16T11:50:42;101364.75;;;25.51;44.89
21109;BME280;10712;52.944;9.098;2022-10-16T11:56:05;101368.84;;;25.63;44.63
21109;BME280;10712;52.944;9.098;2022-10-16T11:58:41;101359.97;;;25.61;44.41
21109;BME280;10712;52.944;9.098;2022-10-16T12:01:42;101371.22;;;25.66;44.34
21109;BME280;10712;52.944;9.098;2022-10-16T12:04:37;101367.78;;;25.80;44.59
21109;BME280;10712;52.944;9.098;2022-10-16T12:07:21;101369.16;;;25.84;44.46
21109;BME280;10712;52.944;9.098;2022-10-16T12:09:49;101379.03;;;25.94;43.95
21109;BME280;10712;52.944;9.098;2022-10-16T12:12:38;101382.13;;;25.82;43.83
21109;BME280;10712;52.944;9.098;2022-10-16T12:15:31;101377.38;;;25.60;44.36
21109;BME280;10712;52.944;9.098;2022-10-16T12:17:58;101382.13;;;25.66;44.07
21109;BME280;10712;52.944;9.098;2022-10-16T12:20:32;101381.13;;;25.59;44.01
21109;BME280;10712;52.944;9.098;2022-10-16T12:23:06;101382.66;;;25.62;43.95
21109;BME280;10712;52.944;9.098;2022-10-16T12:25:35;101390.16;;;25.68;43.31
21109;BME280;10712;52.944;9.098;2022-10-16T12:30:42;101395.38;;;26.10;40.78
21109;BME280;10712;52.944;9.098;2022-10-16T12:33:27;101392.13;;;26.14;40.93
21109;BME280;10712;52.944;9.098;2022-10-16T12:35:54;101395.91;;;26.13;40.83
21109;BME280;10712;52.944;9.098;2022-10-16T12:38:44;101405.13;;;26.12;40.88
21109;BME280;10712;52.944;9.098;2022-10-16T12:41:12;101407.31;;;26.17;40.69
21109;BME280;10712;52.944;9.098;2022-10-16T12:43:48;101408.50;;;26.14;40.16
21109;BME280;10712;52.944;9.098;2022-10-16T12:48:43;101418.09;;;26.26;39.55
21109;BME280;10712;52.944;9.098;2022-10-16T12:51:41;101423.72;;;26.33;39.25
21109;BME280;10712;52.944;9.098;2022-10-16T12:54:29;101424.41;;;26.27;39.24
21109;BME280;10712;52.944;9.098;2022-10-16T13:00:28;101430.19;;;26.08;40.03
21109;BME280;10712;52.944;9.098;2022-10-16T13:09:04;101431.59;;;25.79;41.12
21109;BME280;10712;52.944;9.098;2022-10-16T13:17:42;101442.69;;;25.94;40.47
21109;BME280;10712;52.944;9.098;2022-10-16T13:20:42;101444.69;;;26.16;40.12
21109;BME280;10712;52.944;9.098;2022-10-16T13:23:48;101444.19;;;26.29;39.44
21109;BME280;10712;52.944;9.098;2022-10-16T13:26:44;101447.94;;;26.28;39.15
21109;BME280;10712;52.944;9.098;2022-10-16T13:29:13;101456.50;;;26.33;39.56
21109;BME280;10712;52.944;9.098;2022-10-16T13:31:42;101453.75;;;26.41;39.57
21109;BME280;10712;52.944;9.098;2022-10-16T13:34:17;101453.03;;;26.47;39.12
21109;BME280;10712;52.944;9.098;2022-10-16T13:36:50;101461.88;;;26.49;39.29
21109;BME280;10712;52.944;9.098;2022-10-16T13:39:25;101464.63;;;26.49;39.42
21109;BME280;10712;52.944;9.098;2022-10-16T13:42:10;101458.84;;;26.44;39.36
21109;BME280;10712;52.944;9.098;2022-10-16T13:44:47;101464.31;;;26.44;39.23
21109;BME280;10712;52.944;9.098;2022-10-16T13:47:25;101478.34;;;26.41;38.86
21109;BME280;10712;52.944;9.098;2022-10-16T13:50:04;101473.53;;;26.35;38.94
21109;BME280;10712;52.944;9.098;2022-10-16T13:52:31;101474.22;;;26.37;38.74
21109;BME280;10712;52.944;9.098;2022-10-16T13:54:57;101477.66;;;26.31;39.01
21109;BME280;10712;52.944;9.098;2022-10-16T13:57:24;101476.78;;;26.22;39.09
21109;BME280;10712;52.944;9.098;2022-10-16T13:59:51;101486.19;;;26.12;39.16
21109;BME280;10712;52.944;9.098;2022-10-16T14:02:34;101501.56;;;26.05;39.43
21109;BME280;10712;52.944;9.098;2022-10-16T14:05:04;101499.34;;;26.00;39.71
21109;BME280;10712;52.944;9.098;2022-10-16T14:07:35;101500.56;;;25.98;39.63
21109;BME280;10712;52.944;9.098;2022-10-16T14:10:05;101500.56;;;25.98;39.44
21109;BME280;10712;52.944;9.098;2022-10-16T14:12:34;101501.22;;;25.92;39.93
21109;BME280;10712;52.944;9.098;2022-10-16T14:15:01;101493.69;;;25.94;40.06
21109;BME280;10712;52.944;9.098;2022-10-16T14:17:34;101493.03;;;26.00;40.27
21109;BME280;10712;52.944;9.098;2022-10-16T14:20:05;101503.28;;;26.06;39.90
21109;BME280;10712;52.944;9.098;2022-10-16T14:22:41;101509.06;;;26.03;39.85
21109;BME280;10712;52.944;9.098;2022-10-16T14:25:34;101520.69;;;25.97;39.79